sensor_id;sensor_type;location;lat;lon;timestamp;temperature;humidity
59556;DHT22;45374;52.746;6.304;2023-04-05T00:00:44;0.30;99.90
59556;DHT22;45374;52.746;6.304;2023-04-05T00:03:14;0.20;99.90
59556;DHT22;45374;52.746;6.304;2023-04-05T00:05:42;0.10;99.90
59556;DHT22;45374;52.746;6.304;2023-04-05T00:08:08;0.10;99.90
59556;DHT22;45374;52.746;6.304;2023-04-05T00:10:37;0.00;99.90
59556;DHT22;45374;52.746;6.304;2023-04-05T00:13:03;0.00;99.90
59556;DHT22;45374;52.746;6.304;2023-04-05T00:15:29;0.00;99.90
59556;DHT22;45374;52.746;6.304;2023-04-05T00:17:56;0.00;99.90
59556;DHT22;45374;52.746;6.304;2023-04-05T00:20:22;0.00;99.90
59556;DHT22;45374;52.746;6.304;2023-04-05T00:22:48;0.00;99.90
59556;DHT22;45374;52.746;6.304;2023-04-05T00:25:16;0.10;99.90
59556;DHT22;45374;52.746;6.304;2023-04-05T00:27:45;0.10;99.90
59556;DHT22;45374;52.746;6.304;2023-04-05T00:30:11;0.10;99.90
59556;DHT22;45374;52.746;6.304;2023-04-05T00:32:36;0.10;99.90
59556;DHT22;45374;52.746;6.304;2023-04-05T00:35:02;0.10;99.90
59556;DHT22;45374;52.746;6.304;2023-04-05T00:37:28;0.20;99.90
59556;DHT22;45374;52.746;6.304;2023-04-05T00:39:53;0.20;99.90
59556;DHT22;45374;52.746;6.304;2023-04-05T00:42:19;0.20;99.90
59556;DHT22;45374;52.746;6.304;2023-04-05T00:44:45;0.20;99.90
59556;DHT22;45374;52.746;6.304;2023-04-05T00:47:10;0.20;99.90
59556;DHT22;45374;52.746;6.304;2023-04-05T00:49:36;0.20;99.90
59556;DHT22;45374;52.746;6.304;2023-04-05T00:52:03;0.20;99.90
59556;DHT22;45374;52.746;6.304;2023-04-05T00:54:35;0.20;99.90
59556;DHT22;45374;52.746;6.304;2023-04-05T00:57:03;0.20;99.90
59556;DHT22;45374;52.746;6.304;2023-04-05T00:59:31;0.20;99.90
59556;DHT22;45374;52.746;6.304;2023-04-05T01:02:32;0.20;99.90
59556;DHT22;45374;52.746;6.304;2023-04-05T01:05:01;0.10;99.90
59556;DHT22;45374;52.746;6.304;2023-04-05T01:07:39;0.20;99.90
59556;DHT22;45374;52.746;6.304;2023-04-05T01:10:09;0.20;99.90
59556;DHT22;45374;52.746;6.304;2023-04-05T01:12:37;0.20;99.90
59556;DHT22;45374;52.746;6.304;2023-04-05T01:15:03;0.10;99.90
59556;DHT22;45374;52.746;6.304;2023-04-05T01:17:31;0.10;99.90
59556;DHT22;45374;52.746;6.304;2023-04-05T01:20:03;0.00;99.90
59556;DHT22;45374;52.746;6.304;2023-04-05T01:30:43;-0.20;99.90
59556;DHT22;45374;52.746;6.304;2023-04-05T01:33:29;-0.30;99.90
59556;DHT22;45374;52.746;6.304;2023-04-05T01:36:05;-0.30;99.90
59556;DHT22;45374;52.746;6.304;2023-04-05T01:38:34;-0.30;99.90
59556;DHT22;45374;52.746;6.304;2023-04-05T01:41:03;-0.40;99.90
59556;DHT22;45374;52.746;6.304;2023-04-05T01:43:28;-0.40;99.90
59556;DHT22;45374;52.746;6.304;2023-04-05T01:45:54;-0.50;99.90
59556;DHT22;45374;52.746;6.304;2023-04-05T01:48:19;-0.50;99.90
59556;DHT22;45374;52.746;6.304;2023-04-05T01:50:45;-0.60;99.90
59556;DHT22;45374;52.746;6.304;2023-04-05T01:53:10;-0.60;99.90
59556;DHT22;45374;52.746;6.304;2023-04-05T01:55:36;-0.60;99.90
59556;DHT22;45374;52.746;6.304;2023-04-05T01:58:02;-0.70;99.90
59556;DHT22;45374;52.746;6.304;2023-04-05T02:00:27;-0.70;99.90
59556;DHT22;45374;52.746;6.304;2023-04-05T02:02:53;-0.70;99.90
59556;DHT22;45374;52.746;6.304;2023-04-05T02:05:18;-0.70;99.90
59556;DHT22;45374;52.746;6.304;2023-04-05T02:07:44;-0.70;99.90
59556;DHT22;45374;52.746;6.304;2023-04-05T02:10:09;-0.70;99.90
59556;DHT22;45374;52.746;6.304;2023-04-05T02:12:35;-0.80;99.90
59556;DHT22;45374;52.746;6.304;2023-04-05T02:15:01;-0.80;99.90
59556;DHT22;45374;52.746;6.304;2023-04-05T02:17:26;-0.80;99.90
59556;DHT22;45374;52.746;6.304;2023-04-05T02:19:59;-0.80;99.90
59556;DHT22;45374;52.746;6.304;2023-04-05T02:22:33;-0.90;99.90
59556;DHT22;45374;52.746;6.304;2023-04-05T02:24:59;-0.90;99.90
59556;DHT22;45374;52.746;6.304;2023-04-05T02:27:25;-0.90;99.90
59556;DHT22;45374;52.746;6.304;2023-04-05T02:29:51;-1.00;99.90
59556;DHT22;45374;52.746;6.304;2023-04-05T02:32:17;-1.00;99.90
59556;DHT22;45374;52.746;6.304;2023-04-05T02:34:42;-1.00;99.90
59556;DHT22;45374;52.746;6.304;2023-04-05T02:37:09;-1.10;99.90
59556;DHT22;45374;52.746;6.304;2023-04-05T02:39:34;-1.10;99.90
59556;DHT22;45374;52.746;6.304;2023-04-05T02:42:00;-1.10;99.90
59556;DHT22;45374;52.746;6.304;2023-04-05T02:44:25;-1.10;99.90
59556;DHT22;45374;52.746;6.304;2023-04-05T02:46:51;-1.10;99.90
59556;DHT22;45374;52.746;6.304;2023-04-05T02:49:19;-1.10;99.90
59556;DHT22;45374;52.746;6.304;2023-04-05T02:51:45;-1.10;99.90
59556;DHT22;45374;52.746;6.304;2023-04-05T02:54:10;-1.10;99.90
59556;DHT22;45374;52.746;6.304;2023-04-05T02:56:36;-1.10;99.90
59556;DHT22;45374;52.746;6.304;2023-04-05T02:59:01;-1.10;99.90
59556;DHT22;45374;52.746;6.304;2023-04-05T03:01:28;-1.10;99.90
59556;DHT22;45374;52.746;6.304;2023-04-05T03:03:53;-1.10;99.90
59556;DHT22;45374;52.746;6.304;2023-04-05T03:06:19;-1.10;99.90
59556;DHT22;45374;52.746;6.304;2023-04-05T03:08:46;-1.10;99.90
59556;DHT22;45374;52.746;6.304;2023-04-05T03:11:13;-1.10;99.90
59556;DHT22;45374;52.746;6.304;2023-04-05T03:13:40;-1.10;99.90
59556;DHT22;45374;52.746;6.304;2023-04-05T03:16:06;-1.20;99.90
59556;DHT22;45374;52.746;6.304;2023-04-05T03:18:31;-1.20;99.90
59556;DHT22;45374;52.746;6.304;2023-04-05T03:20:57;-1.20;99.90
59556;DHT22;45374;52.746;6.304;2023-04-05T03:23:26;-1.20;99.90
59556;DHT22;45374;52.746;6.304;2023-04-05T03:26:00;-1.20;99.90
59556;DHT22;45374;52.746;6.304;2023-04-05T03:28:26;-1.20;99.90
59556;DHT22;45374;52.746;6.304;2023-04-05T03:30:52;-1.20;99.90
59556;DHT22;45374;52.746;6.304;2023-04-05T03:33:18;-1.20;99.90
59556;DHT22;45374;52.746;6.304;2023-04-05T03:35:51;-1.20;99.90
59556;DHT22;45374;52.746;6.304;2023-04-05T03:38:16;-1.10;99.90
59556;DHT22;45374;52.746;6.304;2023-04-05T03:40:42;-1.10;99.90
59556;DHT22;45374;52.746;6.304;2023-04-05T03:43:08;-1.10;99.90
59556;DHT22;45374;52.746;6.304;2023-04-05T03:45:33;-1.10;99.90
59556;DHT22;45374;52.746;6.304;2023-04-05T03:48:00;-1.10;99.90
59556;DHT22;45374;52.746;6.304;2023-04-05T03:50:27;-1.20;99.90
59556;DHT22;45374;52.746;6.304;2023-04-05T03:52:53;-1.20;99.90
59556;DHT22;45374;52.746;6.304;2023-04-05T03:55:18;-1.10;99.90
59556;DHT22;45374;52.746;6.304;2023-04-05T03:57:44;-1.20;99.90
59556;DHT22;45374;52.746;6.304;2023-04-05T04:00:10;-1.20;99.90
59556;DHT22;45374;52.746;6.304;2023-04-05T04:02:46;-1.20;99.90
59556;DHT22;45374;52.746;6.304;2023-04-05T04:05:12;-1.20;99.90
59556;DHT22;45374;52.746;6.304;2023-04-05T04:07:39;-1.20;99.90
59556;DHT22;45374;52.746;6.304;2023-04-05T04:10:06;-1.30;99.90
59556;DHT22;45374;52.746;6.304;2023-04-05T04:12:32;-1.30;99.90
59556;DHT22;45374;52.746;6.304;2023-04-05T04:14:58;-1.40;99.90
59556;DHT22;45374;52.746;6.304;2023-04-05T04:17:27;-1.40;99.90
59556;DHT22;45374;52.746;6.304;2023-04-05T04:19:55;-1.50;99.90
59556;DHT22;45374;52.746;6.304;2023-04-05T04:22:21;-1.40;99.90
59556;DHT22;45374;52.746;6.304;2023-04-05T04:24:48;-1.40;99.90
59556;DHT22;45374;52.746;6.304;2023-04-05T04:27:18;-1.40;99.90
59556;DHT22;45374;52.746;6.304;2023-04-05T04:29:46;-1.40;99.90
59556;DHT22;45374;52.746;6.304;2023-04-05T04:32:15;-1.40;99.90
59556;DHT22;45374;52.746;6.304;2023-04-05T04:34:41;-1.50;99.90
59556;DHT22;45374;52.746;6.304;2023-04-05T04:37:13;-1.50;99.90
59556;DHT22;45374;52.746;6.304;2023-04-05T04:39:45;-1.60;99.90
59556;DHT22;45374;52.746;6.304;2023-04-05T04:42:12;-1.60;99.90
59556;DHT22;45374;52.746;6.304;2023-04-05T04:44:40;-1.60;99.90
59556;DHT22;45374;52.746;6.304;2023-04-05T04:47:06;-1.60;99.90
59556;DHT22;45374;52.746;6.304;2023-04-05T04:49:41;-1.70;99.90
59556;DHT22;45374;52.746;6.304;2023-04-05T04:52:06;-1.70;99.90
59556;DHT22;45374;52.746;6.304;2023-04-05T04:54:33;-1.80;99.90
59556;DHT22;45374;52.746;6.304;2023-04-05T04:56:59;-1.80;99.90
59556;DHT22;45374;52.746;6.304;2023-04-05T04:59:27;-1.70;99.90
59556;DHT22;45374;52.746;6.304;2023-04-05T05:01:52;-1.80;99.90
59556;DHT22;45374;52.746;6.304;2023-04-05T05:04:18;-1.80;99.90
59556;DHT22;45374;52.746;6.304;2023-04-05T05:06:43;-1.80;99.90
59556;DHT22;45374;52.746;6.304;2023-04-05T05:09:09;-1.80;99.90
59556;DHT22;45374;52.746;6.304;2023-04-05T05:11:35;-1.70;99.90
59556;DHT22;45374;52.746;6.304;2023-04-05T05:14:00;-1.80;99.90
59556;DHT22;45374;52.746;6.304;2023-04-05T05:16:26;-1.80;99.90
59556;DHT22;45374;52.746;6.304;2023-04-05T05:18:52;-1.90;99.90
59556;DHT22;45374;52.746;6.304;2023-04-05T05:21:18;-1.90;99.90
59556;DHT22;45374;52.746;6.304;2023-04-05T05:23:44;-1.90;99.90
59556;DHT22;45374;52.746;6.304;2023-04-05T05:26:11;-1.90;99.90
59556;DHT22;45374;52.746;6.304;2023-04-05T05:28:37;-1.90;99.90
59556;DHT22;45374;52.746;6.304;2023-04-05T05:31:04;-1.90;99.90
59556;DHT22;45374;52.746;6.304;2023-04-05T05:33:30;-1.90;99.90
59556;DHT22;45374;52.746;6.304;2023-04-05T05:35:56;-1.80;99.90
59556;DHT22;45374;52.746;6.304;2023-04-05T05:38:21;-1.80;99.90
59556;DHT22;45374;52.746;6.304;2023-04-05T05:40:47;-1.70;99.90
59556;DHT22;45374;52.746;6.304;2023-04-05T05:43:13;-1.60;99.90
59556;DHT22;45374;52.746;6.304;2023-04-05T05:45:40;-1.60;99.90
59556;DHT22;45374;52.746;6.304;2023-04-05T05:48:05;-1.50;99.90
59556;DHT22;45374;52.746;6.304;2023-04-05T05:50:31;-1.50;99.90
59556;DHT22;45374;52.746;6.304;2023-04-05T05:52:58;-1.50;99.90
59556;DHT22;45374;52.746;6.304;2023-04-05T05:55:25;-1.50;99.90
59556;DHT22;45374;52.746;6.304;2023-04-05T05:57:51;-1.40;99.90
59556;DHT22;45374;52.746;6.304;2023-04-05T06:00:18;-1.30;99.90
59556;DHT22;45374;52.746;6.304;2023-04-05T06:02:45;-1.20;99.90
59556;DHT22;45374;52.746;6.304;2023-04-05T06:05:11;-1.10;99.90
59556;DHT22;45374;52.746;6.304;2023-04-05T06:07:37;-1.00;99.90
59556;DHT22;45374;52.746;6.304;2023-04-05T06:10:04;-0.90;99.90
59556;DHT22;45374;52.746;6.304;2023-04-05T06:12:30;-0.80;99.90
59556;DHT22;45374;52.746;6.304;2023-04-05T06:14:56;-0.70;99.90
59556;DHT22;45374;52.746;6.304;2023-04-05T06:17:21;-0.70;99.90
59556;DHT22;45374;52.746;6.304;2023-04-05T06:19:47;-0.60;99.90
59556;DHT22;45374;52.746;6.304;2023-04-05T06:22:12;-0.50;99.90
59556;DHT22;45374;52.746;6.304;2023-04-05T06:24:38;-0.40;99.90
59556;DHT22;45374;52.746;6.304;2023-04-05T06:27:03;-0.30;99.90
59556;DHT22;45374;52.746;6.304;2023-04-05T06:29:29;-0.20;99.90
59556;DHT22;45374;52.746;6.304;2023-04-05T06:31:55;-0.20;99.90
59556;DHT22;45374;52.746;6.304;2023-04-05T06:34:22;0.00;99.90
59556;DHT22;45374;52.746;6.304;2023-04-05T06:36:47;0.10;99.90
59556;DHT22;45374;52.746;6.304;2023-04-05T06:39:13;0.20;99.90
59556;DHT22;45374;52.746;6.304;2023-04-05T06:41:39;0.30;99.90
59556;DHT22;45374;52.746;6.304;2023-04-05T06:44:04;0.40;99.90
59556;DHT22;45374;52.746;6.304;2023-04-05T06:46:30;0.50;99.90
59556;DHT22;45374;52.746;6.304;2023-04-05T06:48:57;0.60;99.90
59556;DHT22;45374;52.746;6.304;2023-04-05T06:51:22;0.70;99.90
59556;DHT22;45374;52.746;6.304;2023-04-05T06:53:49;0.70;99.90
59556;DHT22;45374;52.746;6.304;2023-04-05T06:56:15;0.90;99.90
59556;DHT22;45374;52.746;6.304;2023-04-05T06:58:40;1.00;99.90
59556;DHT22;45374;52.746;6.304;2023-04-05T07:01:06;1.10;99.90
59556;DHT22;45374;52.746;6.304;2023-04-05T07:03:32;1.20;99.90
59556;DHT22;45374;52.746;6.304;2023-04-05T07:05:59;1.30;99.90
59556;DHT22;45374;52.746;6.304;2023-04-05T07:08:26;1.50;99.90
59556;DHT22;45374;52.746;6.304;2023-04-05T07:10:52;1.60;99.90
59556;DHT22;45374;52.746;6.304;2023-04-05T07:13:19;1.70;99.90
59556;DHT22;45374;52.746;6.304;2023-04-05T07:15:45;1.80;99.90
59556;DHT22;45374;52.746;6.304;2023-04-05T07:18:11;2.00;99.90
59556;DHT22;45374;52.746;6.304;2023-04-05T07:20:37;2.10;99.90
59556;DHT22;45374;52.746;6.304;2023-04-05T07:23:03;2.20;99.90
59556;DHT22;45374;52.746;6.304;2023-04-05T07:25:30;2.30;99.90
59556;DHT22;45374;52.746;6.304;2023-04-05T07:27:56;2.40;99.90
59556;DHT22;45374;52.746;6.304;2023-04-05T07:30:22;2.50;99.90
59556;DHT22;45374;52.746;6.304;2023-04-05T07:32:47;2.70;99.90
59556;DHT22;45374;52.746;6.304;2023-04-05T07:35:15;2.80;99.90
59556;DHT22;45374;52.746;6.304;2023-04-05T07:37:41;2.90;99.90
59556;DHT22;45374;52.746;6.304;2023-04-05T07:40:07;3.00;99.90
59556;DHT22;45374;52.746;6.304;2023-04-05T07:42:33;3.20;99.90
59556;DHT22;45374;52.746;6.304;2023-04-05T07:44:58;3.30;99.90
59556;DHT22;45374;52.746;6.304;2023-04-05T07:47:24;3.50;99.90
59556;DHT22;45374;52.746;6.304;2023-04-05T07:49:49;3.60;99.90
59556;DHT22;45374;52.746;6.304;2023-04-05T07:52:15;3.70;99.90
59556;DHT22;45374;52.746;6.304;2023-04-05T07:54:40;3.80;99.90
59556;DHT22;45374;52.746;6.304;2023-04-05T07:57:08;3.90;99.90
59556;DHT22;45374;52.746;6.304;2023-04-05T07:59:34;4.10;99.90
59556;DHT22;45374;52.746;6.304;2023-04-05T08:02:00;4.10;99.90
59556;DHT22;45374;52.746;6.304;2023-04-05T08:04:26;4.30;99.90
59556;DHT22;45374;52.746;6.304;2023-04-05T08:06:51;4.40;99.90
59556;DHT22;45374;52.746;6.304;2023-04-05T08:09:27;4.40;99.90
59556;DHT22;45374;52.746;6.304;2023-04-05T08:11:59;4.50;99.90
59556;DHT22;45374;52.746;6.304;2023-04-05T08:14:27;4.60;99.90
59556;DHT22;45374;52.746;6.304;2023-04-05T08:16:52;4.70;99.90
59556;DHT22;45374;52.746;6.304;2023-04-05T08:19:18;4.80;99.90
59556;DHT22;45374;52.746;6.304;2023-04-05T08:21:43;4.90;99.90
59556;DHT22;45374;52.746;6.304;2023-04-05T08:24:09;5.00;99.90
59556;DHT22;45374;52.746;6.304;2023-04-05T08:26:34;5.10;99.90
59556;DHT22;45374;52.746;6.304;2023-04-05T08:29:00;5.20;99.90
59556;DHT22;45374;52.746;6.304;2023-04-05T08:31:25;5.30;99.90
59556;DHT22;45374;52.746;6.304;2023-04-05T08:33:51;5.40;99.90
59556;DHT22;45374;52.746;6.304;2023-04-05T08:36:17;5.50;99.90
59556;DHT22;45374;52.746;6.304;2023-04-05T08:38:43;5.60;99.90
59556;DHT22;45374;52.746;6.304;2023-04-05T08:41:20;5.70;99.90
59556;DHT22;45374;52.746;6.304;2023-04-05T08:44:00;5.80;99.90
59556;DHT22;45374;52.746;6.304;2023-04-05T08:46:32;5.90;99.90
59556;DHT22;45374;52.746;6.304;2023-04-05T08:49:03;6.00;99.90
59556;DHT22;45374;52.746;6.304;2023-04-05T08:51:28;6.10;99.90
59556;DHT22;45374;52.746;6.304;2023-04-05T08:53:55;6.20;99.90
59556;DHT22;45374;52.746;6.304;2023-04-05T08:56:24;6.30;99.90
59556;DHT22;45374;52.746;6.304;2023-04-05T08:59:08;6.40;99.90
59556;DHT22;45374;52.746;6.304;2023-04-05T09:01:43;6.50;99.90
59556;DHT22;45374;52.746;6.304;2023-04-05T09:04:17;6.60;99.90
59556;DHT22;45374;52.746;6.304;2023-04-05T09:06:44;6.70;99.90
59556;DHT22;45374;52.746;6.304;2023-04-05T09:09:13;6.80;99.90
59556;DHT22;45374;52.746;6.304;2023-04-05T09:11:39;6.80;99.90
59556;DHT22;45374;52.746;6.304;2023-04-05T09:14:05;6.90;99.90
59556;DHT22;45374;52.746;6.304;2023-04-05T09:16:39;7.00;99.90
59556;DHT22;45374;52.746;6.304;2023-04-05T09:19:05;7.00;99.90
59556;DHT22;45374;52.746;6.304;2023-04-05T09:22:01;7.10;99.90
59556;DHT22;45374;52.746;6.304;2023-04-05T09:24:43;7.30;99.90
59556;DHT22;45374;52.746;6.304;2023-04-05T09:27:10;7.40;99.90
59556;DHT22;45374;52.746;6.304;2023-04-05T09:29:41;7.40;99.90
59556;DHT22;45374;52.746;6.304;2023-04-05T09:32:12;7.50;99.90
59556;DHT22;45374;52.746;6.304;2023-04-05T09:34:39;7.60;99.90
59556;DHT22;45374;52.746;6.304;2023-04-05T09:37:16;7.70;99.90
59556;DHT22;45374;52.746;6.304;2023-04-05T09:39:42;7.90;99.90
59556;DHT22;45374;52.746;6.304;2023-04-05T09:42:13;8.00;99.90
59556;DHT22;45374;52.746;6.304;2023-04-05T09:45:12;8.10;99.90
59556;DHT22;45374;52.746;6.304;2023-04-05T09:47:38;8.20;99.90
59556;DHT22;45374;52.746;6.304;2023-04-05T09:52:40;8.40;99.90
59556;DHT22;45374;52.746;6.304;2023-04-05T09:55:06;8.40;99.90
59556;DHT22;45374;52.746;6.304;2023-04-05T09:57:34;8.50;99.90
59556;DHT22;45374;52.746;6.304;2023-04-05T09:59:59;8.50;99.90
59556;DHT22;45374;52.746;6.304;2023-04-05T10:02:34;8.60;99.90
59556;DHT22;45374;52.746;6.304;2023-04-05T10:05:09;8.80;99.90
59556;DHT22;45374;52.746;6.304;2023-04-05T10:07:41;8.90;99.90
59556;DHT22;45374;52.746;6.304;2023-04-05T10:10:08;8.90;99.90
59556;DHT22;45374;52.746;6.304;2023-04-05T10:12:37;8.90;99.90
59556;DHT22;45374;52.746;6.304;2023-04-05T10:15:03;9.00;99.90
59556;DHT22;45374;52.746;6.304;2023-04-05T10:18:20;9.10;99.90
59556;DHT22;45374;52.746;6.304;2023-04-05T10:20:41;9.20;99.90
59556;DHT22;45374;52.746;6.304;2023-04-05T10:23:11;9.30;99.90
59556;DHT22;45374;52.746;6.304;2023-04-05T10:28:32;9.30;99.90
59556;DHT22;45374;52.746;6.304;2023-04-05T10:35:05;9.60;99.90
59556;DHT22;45374;52.746;6.304;2023-04-05T10:37:04;9.70;99.90
59556;DHT22;45374;52.746;6.304;2023-04-05T10:39:41;9.80;99.90
59556;DHT22;45374;52.746;6.304;2023-04-05T10:42:19;9.90;99.90
59556;DHT22;45374;52.746;6.304;2023-04-05T10:44:52;10.00;99.90
59556;DHT22;45374;52.746;6.304;2023-04-05T10:47:27;10.00;99.90
59556;DHT22;45374;52.746;6.304;2023-04-05T10:49:55;10.00;99.90
59556;DHT22;45374;52.746;6.304;2023-04-05T10:52:21;10.00;99.90
59556;DHT22;45374;52.746;6.304;2023-04-05T10:54:48;9.90;99.90
59556;DHT22;45374;52.746;6.304;2023-04-05T10:57:14;9.90;99.90
59556;DHT22;45374;52.746;6.304;2023-04-05T10:59:44;9.90;99.90
59556;DHT22;45374;52.746;6.304;2023-04-05T11:02:10;9.90;99.90
59556;DHT22;45374;52.746;6.304;2023-04-05T11:04:36;9.90;99.60
59556;DHT22;45374;52.746;6.304;2023-04-05T11:07:12;9.90;99.90
59556;DHT22;45374;52.746;6.304;2023-04-05T11:09:50;10.00;99.90
59556;DHT22;45374;52.746;6.304;2023-04-05T11:12:17;10.20;99.90
59556;DHT22;45374;52.746;6.304;2023-04-05T11:14:42;10.20;99.90
59556;DHT22;45374;52.746;6.304;2023-04-05T11:17:25;10.30;98.30
59556;DHT22;45374;52.746;6.304;2023-04-05T11:20:04;10.20;99.80
59556;DHT22;45374;52.746;6.304;2023-04-05T11:22:30;10.30;99.90
59556;DHT22;45374;52.746;6.304;2023-04-05T11:24:58;10.40;99.90
59556;DHT22;45374;52.746;6.304;2023-04-05T11:27:34;10.40;99.90
59556;DHT22;45374;52.746;6.304;2023-04-05T11:30:05;10.40;99.90
59556;DHT22;45374;52.746;6.304;2023-04-05T11:32:42;10.40;99.00
59556;DHT22;45374;52.746;6.304;2023-04-05T11:35:16;10.40;99.90
59556;DHT22;45374;52.746;6.304;2023-04-05T11:40:32;10.70;99.90
59556;DHT22;45374;52.746;6.304;2023-04-05T11:43:08;10.80;96.60
59556;DHT22;45374;52.746;6.304;2023-04-05T11:45:36;10.90;99.90
59556;DHT22;45374;52.746;6.304;2023-04-05T11:48:07;10.90;95.10
59556;DHT22;45374;52.746;6.304;2023-04-05T11:50:35;10.90;99.90
59556;DHT22;45374;52.746;6.304;2023-04-05T11:53:17;10.90;94.70
59556;DHT22;45374;52.746;6.304;2023-04-05T11:55:47;10.70;93.00
59556;DHT22;45374;52.746;6.304;2023-04-05T12:00:42;10.60;97.70
59556;DHT22;45374;52.746;6.304;2023-04-05T12:03:13;10.50;98.30
59556;DHT22;45374;52.746;6.304;2023-04-05T12:05:52;10.50;97.40
59556;DHT22;45374;52.746;6.304;2023-04-05T12:08:19;10.50;96.80
59556;DHT22;45374;52.746;6.304;2023-04-05T12:10:58;10.50;97.00
59556;DHT22;45374;52.746;6.304;2023-04-05T12:13:32;10.60;97.50
59556;DHT22;45374;52.746;6.304;2023-04-05T12:16:05;10.60;92.70
59556;DHT22;45374;52.746;6.304;2023-04-05T12:18:33;10.60;96.50
59556;DHT22;45374;52.746;6.304;2023-04-05T12:21:01;10.70;98.10
59556;DHT22;45374;52.746;6.304;2023-04-05T12:23:27;10.90;98.40
59556;DHT22;45374;52.746;6.304;2023-04-05T12:25:54;11.00;95.30
59556;DHT22;45374;52.746;6.304;2023-04-05T12:28:21;10.90;93.20
59556;DHT22;45374;52.746;6.304;2023-04-05T12:30:47;11.10;96.40
59556;DHT22;45374;52.746;6.304;2023-04-05T12:33:13;11.20;97.60
59556;DHT22;45374;52.746;6.304;2023-04-05T12:35:39;11.20;97.10
59556;DHT22;45374;52.746;6.304;2023-04-05T12:38:05;11.30;97.00
59556;DHT22;45374;52.746;6.304;2023-04-05T12:40:36;11.20;93.90
59556;DHT22;45374;52.746;6.304;2023-04-05T12:43:07;11.30;94.40
59556;DHT22;45374;52.746;6.304;2023-04-05T12:45:32;11.40;96.80
59556;DHT22;45374;52.746;6.304;2023-04-05T12:48:21;11.40;88.90
59556;DHT22;45374;52.746;6.304;2023-04-05T12:50:48;11.50;94.60
59556;DHT22;45374;52.746;6.304;2023-04-05T12:53:23;11.50;95.10
59556;DHT22;45374;52.746;6.304;2023-04-05T12:55:56;11.60;94.40
59556;DHT22;45374;52.746;6.304;2023-04-05T12:58:36;11.70;94.60
59556;DHT22;45374;52.746;6.304;2023-04-05T13:01:02;11.50;88.30
59556;DHT22;45374;52.746;6.304;2023-04-05T13:03:28;11.50;93.90
59556;DHT22;45374;52.746;6.304;2023-04-05T13:05:54;11.70;95.80
59556;DHT22;45374;52.746;6.304;2023-04-05T13:08:20;11.80;94.60
59556;DHT22;45374;52.746;6.304;2023-04-05T13:10:48;11.90;95.10
59556;DHT22;45374;52.746;6.304;2023-04-05T13:13:14;11.90;95.00
59556;DHT22;45374;52.746;6.304;2023-04-05T13:15:40;11.90;93.60
59556;DHT22;45374;52.746;6.304;2023-04-05T13:18:06;11.90;93.80
59556;DHT22;45374;52.746;6.304;2023-04-05T13:20:32;11.90;93.20
59556;DHT22;45374;52.746;6.304;2023-04-05T13:22:58;11.90;91.40
59556;DHT22;45374;52.746;6.304;2023-04-05T13:29:04;12.00;92.80
59556;DHT22;45374;52.746;6.304;2023-04-05T13:31:31;12.20;94.70
59556;DHT22;45374;52.746;6.304;2023-04-05T13:34:12;12.30;93.20
59556;DHT22;45374;52.746;6.304;2023-04-05T13:36:53;12.20;91.00
59556;DHT22;45374;52.746;6.304;2023-04-05T13:39:18;12.20;93.10
59556;DHT22;45374;52.746;6.304;2023-04-05T13:41:44;12.30;94.30
59556;DHT22;45374;52.746;6.304;2023-04-05T13:44:10;12.40;91.30
59556;DHT22;45374;52.746;6.304;2023-04-05T13:46:35;12.30;90.00
59556;DHT22;45374;52.746;6.304;2023-04-05T13:49:03;12.20;84.70
59556;DHT22;45374;52.746;6.304;2023-04-05T13:51:29;12.00;80.20
59556;DHT22;45374;52.746;6.304;2023-04-05T13:53:58;11.80;87.00
59556;DHT22;45374;52.746;6.304;2023-04-05T13:56:24;11.70;83.90
59556;DHT22;45374;52.746;6.304;2023-04-05T13:58:49;11.80;84.00
59556;DHT22;45374;52.746;6.304;2023-04-05T14:01:15;11.80;87.50
59556;DHT22;45374;52.746;6.304;2023-04-05T14:03:41;11.80;85.50
59556;DHT22;45374;52.746;6.304;2023-04-05T14:06:06;11.80;83.30
59556;DHT22;45374;52.746;6.304;2023-04-05T14:08:32;11.70;82.70
59556;DHT22;45374;52.746;6.304;2023-04-05T14:10:57;11.70;84.00
59556;DHT22;45374;52.746;6.304;2023-04-05T14:13:23;11.70;83.30
59556;DHT22;45374;52.746;6.304;2023-04-05T14:15:48;11.80;87.90
59556;DHT22;45374;52.746;6.304;2023-04-05T14:18:14;11.90;85.20
59556;DHT22;45374;52.746;6.304;2023-04-05T14:20:40;12.00;86.50
59556;DHT22;45374;52.746;6.304;2023-04-05T14:23:05;12.20;85.00
59556;DHT22;45374;52.746;6.304;2023-04-05T14:25:31;12.30;84.80
59556;DHT22;45374;52.746;6.304;2023-04-05T14:31:08;12.20;79.70
59556;DHT22;45374;52.746;6.304;2023-04-05T14:33:33;12.10;78.60
59556;DHT22;45374;52.746;6.304;2023-04-05T14:35:59;12.20;82.20
59556;DHT22;45374;52.746;6.304;2023-04-05T14:38:24;12.20;81.70
59556;DHT22;45374;52.746;6.304;2023-04-05T14:40:50;12.20;81.30
59556;DHT22;45374;52.746;6.304;2023-04-05T14:43:18;12.30;79.80
59556;DHT22;45374;52.746;6.304;2023-04-05T14:45:44;12.40;81.00
59556;DHT22;45374;52.746;6.304;2023-04-05T14:48:09;12.40;85.70
59556;DHT22;45374;52.746;6.304;2023-04-05T14:50:35;12.60;85.30
59556;DHT22;45374;52.746;6.304;2023-04-05T14:56:41;13.00;84.00
59556;DHT22;45374;52.746;6.304;2023-04-05T14:59:07;12.90;80.40
59556;DHT22;45374;52.746;6.304;2023-04-05T15:01:32;12.90;82.20
59556;DHT22;45374;52.746;6.304;2023-04-05T15:03:58;12.90;82.40
59556;DHT22;45374;52.746;6.304;2023-04-05T15:06:23;12.80;78.00
59556;DHT22;45374;52.746;6.304;2023-04-05T15:08:50;12.80;80.20
59556;DHT22;45374;52.746;6.304;2023-04-05T15:11:16;12.80;79.60
59556;DHT22;45374;52.746;6.304;2023-04-05T15:14:03;12.80;79.20
59556;DHT22;45374;52.746;6.304;2023-04-05T15:16:29;12.80;76.20
59556;DHT22;45374;52.746;6.304;2023-04-05T15:18:55;12.90;76.90
59556;DHT22;45374;52.746;6.304;2023-04-05T15:21:23;13.10;79.10
59556;DHT22;45374;52.746;6.304;2023-04-05T15:23:48;13.30;76.20
59556;DHT22;45374;52.746;6.304;2023-04-05T15:26:14;13.40;75.70
59556;DHT22;45374;52.746;6.304;2023-04-05T15:28:39;13.50;76.60
59556;DHT22;45374;52.746;6.304;2023-04-05T15:31:05;13.30;73.90
59556;DHT22;45374;52.746;6.304;2023-04-05T15:33:30;13.30;74.30
59556;DHT22;45374;52.746;6.304;2023-04-05T15:35:56;13.40;72.10
59556;DHT22;45374;52.746;6.304;2023-04-05T15:38:21;13.60;75.10
59556;DHT22;45374;52.746;6.304;2023-04-05T15:40:47;13.90;76.20
59556;DHT22;45374;52.746;6.304;2023-04-05T15:43:19;14.10;76.20
59556;DHT22;45374;52.746;6.304;2023-04-05T15:45:45;14.10;74.20
59556;DHT22;45374;52.746;6.304;2023-04-05T15:48:11;14.20;73.30
59556;DHT22;45374;52.746;6.304;2023-04-05T15:50:38;14.20;71.70
59556;DHT22;45374;52.746;6.304;2023-04-05T15:53:05;14.30;71.90
59556;DHT22;45374;52.746;6.304;2023-04-05T15:55:31;14.30;71.00
59556;DHT22;45374;52.746;6.304;2023-04-05T15:57:57;14.30;72.10
59556;DHT22;45374;52.746;6.304;2023-04-05T16:00:22;14.40;72.00
59556;DHT22;45374;52.746;6.304;2023-04-05T16:02:48;14.50;70.40
59556;DHT22;45374;52.746;6.304;2023-04-05T16:05:14;14.60;69.90
59556;DHT22;45374;52.746;6.304;2023-04-05T16:07:39;14.70;70.10
59556;DHT22;45374;52.746;6.304;2023-04-05T16:10:05;14.90;70.30
59556;DHT22;45374;52.746;6.304;2023-04-05T16:12:32;15.10;68.00
59556;DHT22;45374;52.746;6.304;2023-04-05T16:15:20;15.30;67.80